Terminal Aerodrome Forecast
Issued by NWS Milwaukee/Sullivan, WI

Home | Current Version | Previous Version | Text Only | Print | Product List | Glossary On
Versions: 1 2 3 4 5 6 7 8 9 10 11 12 13 14 15 16 17 18 19 20 21 22 23 24 25 26 27
000
FTUS43 KMKX 010209 AAA
TAFMSN
TAF AMD
KMSN 010209Z 0102/0124 15006KT P6SM SCT060 BKN100
     FM010600 15005KT P6SM -SHRA BKN080
      TEMPO 0107/0109 4SM -TSRA OVC040CB
     FM010900 VRB03KT 5SM -SHRA OVC040
     FM011500 23005KT P6SM VCSH SCT040 BKN080
     FM012000 24009KT P6SM BKN250=

USA.gov is the U.S. government's official web portal to all federal, state and local government web resources and services.